Time;durP1;ratioP1;P1;durP2;ratioP2;P2;SDS_P1;SDS_P2;PMS_P1;PMS_P2;Temp;Humidity;BMP_temperature;BMP_pressure;BME280_temperature;BME280_humidity;BME280_pressure;Samples;Min_cycle;Max_cycle;Signal;HPM_P1;HPM_P2
2024/03/12 00:00:17;;;;;;;16.20;8.70;;;;;;;12.07;100.00;100895.22;2086675;28;21061;-67
2024/03/12 00:01:19;;;;;;;14.63;8.27;;;;;;;12.11;100.00;100901.47;2086339;28;20193;-67
2024/03/12 00:02:20;;;;;;;14.50;8.77;;;;;;;12.08;100.00;100902.34;2086226;28;20874;-67
2024/03/12 00:03:20;;;;;;;16.37;8.97;;;;;;;12.04;100.00;100898.84;2086055;28;20573;-67
2024/03/12 00:04:22;;;;;;;17.77;8.43;;;;;;;12.13;100.00;100915.69;2085538;28;20258;-67
2024/03/12 00:05:22;;;;;;;13.77;8.60;;;;;;;11.69;100.00;100851.78;2088866;28;20180;-67
2024/03/12 00:06:23;;;;;;;18.50;9.60;;;;;;;11.94;100.00;100879.69;2085496;28;20439;-67
2024/03/12 00:07:23;;;;;;;20.17;9.37;;;;;;;12.18;100.00;100906.84;2090067;28;20202;-67
2024/03/12 00:08:24;;;;;;;14.13;8.00;;;;;;;12.17;100.00;100908.06;2089617;28;20688;-67
2024/03/12 00:09:26;;;;;;;15.60;8.60;;;;;;;12.19;100.00;100905.63;2085777;28;21312;-67
2024/03/12 00:10:27;;;;;;;15.07;9.50;;;;;;;12.26;100.00;100907.44;2085892;28;20650;-67
2024/03/12 00:11:28;;;;;;;13.57;8.53;;;;;;;12.24;100.00;100901.53;2088444;28;20872;-68
2024/03/12 00:12:29;;;;;;;15.17;8.87;;;;;;;12.25;100.00;100898.31;2085611;28;20216;-67
2024/03/12 00:13:30;;;;;;;14.73;8.53;;;;;;;12.00;100.00;100855.72;2085783;28;20290;-67
2024/03/12 00:14:33;;;;;;;14.43;9.10;;;;;;;12.26;100.00;100896.31;2085183;28;20278;-68
2024/03/12 00:15:36;;;;;;;14.97;8.93;;;;;;;12.26;100.00;100896.31;2085378;28;20194;-67
2024/03/12 00:16:40;;;;;;;15.93;9.57;;;;;;;12.25;100.00;100895.53;2085526;28;21125;-67
2024/03/12 00:17:41;;;;;;;16.43;8.63;;;;;;;12.19;100.00;100880.59;2088250;28;21149;-68
2024/03/12 00:18:41;;;;;;;13.93;8.50;;;;;;;12.24;100.00;100885.63;2088015;28;20989;-67
2024/03/12 00:19:42;;;;;;;16.03;8.90;;;;;;;12.22;100.00;100879.75;2092267;28;20614;-67
2024/03/12 00:20:44;;;;;;;13.33;8.47;;;;;;;12.22;100.00;100881.72;2091998;28;21039;-67
2024/03/12 00:21:45;;;;;;;18.70;9.87;;;;;;;12.07;100.00;100858.31;2088995;28;20330;-68
2024/03/12 00:22:47;;;;;;;13.47;8.10;;;;;;;12.20;100.00;100868.28;2085338;28;20455;-67
2024/03/12 00:23:48;;;;;;;17.07;9.87;;;;;;;11.80;100.00;100827.28;2085257;28;20887;-67
2024/03/12 00:24:49;;;;;;;18.07;9.10;;;;;;;12.14;100.00;100872.03;2088069;28;20457;-67
2024/03/12 00:25:50;;;;;;;18.17;8.57;;;;;;;12.14;100.00;100875.59;2084629;28;20199;-67
2024/03/12 00:26:52;;;;;;;17.67;8.90;;;;;;;12.17;100.00;100879.47;2084462;28;20453;-67
2024/03/12 00:27:56;;;;;;;16.97;9.03;;;;;;;12.16;100.00;100873.16;2086102;28;20461;-67
2024/03/12 00:28:56;;;;;;;15.47;8.77;;;;;;;12.19;100.00;100877.06;2085566;28;20914;-67
2024/03/12 00:29:57;;;;;;;13.10;8.67;;;;;;;12.15;100.00;100885.47;2086089;28;20482;-68
2024/03/12 00:30:59;;;;;;;14.23;8.77;;;;;;;12.16;100.00;100880.72;2085775;28;20196;-67
2024/03/12 00:31:59;;;;;;;15.57;8.37;;;;;;;11.42;100.00;100779.84;2087329;28;20207;-68
2024/03/12 00:33:00;;;;;;;12.20;9.10;;;;;;;12.14;100.00;100885.94;2086405;28;20435;-67
2024/03/12 00:34:01;;;;;;;17.57;8.80;;;;;;;12.13;100.00;100896.25;2084838;28;20196;-67
2024/03/12 00:35:03;;;;;;;14.17;8.43;;;;;;;12.05;100.00;100883.75;2086836;28;20446;-67
2024/03/12 00:36:03;;;;;;;12.77;7.90;;;;;;;12.13;100.00;100892.69;2089492;28;20524;-68
2024/03/12 00:37:04;;;;;;;17.00;9.50;;;;;;;12.13;100.00;100892.69;2085522;28;20453;-67
2024/03/12 00:38:05;;;;;;;15.20;8.13;;;;;;;12.08;100.00;100882.09;2092813;28;20207;-67
2024/03/12 00:39:06;;;;;;;14.13;8.53;;;;;;;12.13;100.00;100889.91;2086274;28;20230;-67
2024/03/12 00:40:11;;;;;;;14.63;8.50;;;;;;;12.10;100.00;100888.00;2085767;28;20485;-67
2024/03/12 00:41:11;;;;;;;14.07;8.67;;;;;;;12.08;100.00;100885.66;2087103;28;20661;-67
2024/03/12 00:42:13;;;;;;;13.77;7.87;;;;;;;12.08;100.00;100890.44;2085984;28;20940;-67
2024/03/12 00:43:14;;;;;;;16.77;7.70;;;;;;;12.05;100.00;100894.09;2085790;28;20197;-67
2024/03/12 00:44:14;;;;;;;15.20;8.43;;;;;;;12.05;100.00;100888.53;2086756;28;20442;-67
2024/03/12 00:45:19;;;;;;;14.87;8.80;;;;;;;12.01;100.00;100891.41;2088495;28;20188;-67
2024/03/12 00:46:21;;;;;;;18.57;9.70;;;;;;;11.95;100.00;100887.56;2085422;28;20184;-67
2024/03/12 00:47:21;;;;;;;15.13;9.43;;;;;;;11.96;100.00;100893.91;2085201;28;20453;-67
2024/03/12 00:48:23;;;;;;;13.40;8.43;;;;;;;11.23;100.00;100772.38;2086366;28;20446;-67
2024/03/12 00:49:25;;;;;;;18.57;9.53;;;;;;;11.95;100.00;100890.34;2084877;28;20279;-68
2024/03/12 00:50:27;;;;;;;18.10;9.43;;;;;;;11.86;100.00;100878.31;2085285;28;21026;-67
2024/03/12 00:51:29;;;;;;;15.07;8.17;;;;;;;11.96;100.00;100896.69;2088063;28;20422;-68
2024/03/12 00:52:30;;;;;;;15.30;8.80;;;;;;;11.91;100.00;100884.13;2085577;28;20503;-67
2024/03/12 00:53:31;;;;;;;15.63;8.80;;;;;;;11.98;100.00;100899.81;2084443;28;20964;-67
2024/03/12 00:54:35;;;;;;;18.03;9.10;;;;;;;11.98;100.00;100897.03;2084998;28;20543;-67
2024/03/12 00:55:36;;;;;;;15.13;8.70;;;;;;;11.95;100.00;100901.47;2087315;28;20205;-68
2024/03/12 00:56:37;;;;;;;15.23;8.97;;;;;;;11.93;100.00;100903.13;2085028;28;20954;-67
2024/03/12 00:57:42;;;;;;;19.53;9.83;;;;;;;11.91;100.00;100891.66;2085739;28;20242;-67
2024/03/12 00:58:43;;;;;;;18.30;9.83;;;;;;;11.23;100.00;100796.56;2087006;28;20438;-67
2024/03/12 00:59:43;;;;;;;14.53;7.93;;;;;;;11.67;100.00;100870.84;2085816;28;20533;-67
2024/03/12 01:00:45;;;;;;;14.00;8.17;;;;;;;11.83;100.00;100902.16;2085557;28;20208;-67
2024/03/12 01:01:46;;;;;;;15.00;8.93;;;;;;;11.81;100.00;100896.28;2085910;28;20298;-67
2024/03/12 01:02:49;;;;;;;14.00;8.13;;;;;;;11.83;100.00;100901.41;2085762;28;20469;-67
2024/03/12 01:03:50;;;;;;;15.13;8.50;;;;;;;11.82;100.00;100903.38;2084794;28;20202;-67
2024/03/12 01:04:50;;;;;;;14.50;8.93;;;;;;;11.82;100.00;100908.16;2087798;28;20461;-67
2024/03/12 01:05:53;;;;;;;12.43;8.30;;;;;;;11.83;100.00;100907.72;2084697;28;20690;-68
2024/03/12 01:06:55;;;;;;;12.43;7.83;;;;;;;11.46;100.00;100854.66;2084063;28;20730;-67
2024/03/12 01:08:00;;;;;;;17.13;9.27;;;;;;;11.82;100.00;100906.16;2087457;28;20457;-67
2024/03/12 01:09:06;;;;;;;15.53;8.40;;;;;;;11.34;100.00;100831.19;2088947;28;20443;-67
2024/03/12 01:10:07;;;;;;;13.90;8.10;;;;;;;11.81;100.00;100904.59;2088586;28;20458;-67
2024/03/12 01:11:07;;;;;;;15.77;8.13;;;;;;;11.78;100.00;100904.69;2076870;28;20468;-67
2024/03/12 01:12:13;;;;;;;15.63;8.20;;;;;;;11.03;100.00;100804.97;2089053;28;20244;-67
2024/03/12 01:13:14;;;;;;;15.43;8.17;;;;;;;11.67;100.00;100902.16;2087635;28;20166;-67
2024/03/12 01:14:17;;;;;;;13.67;8.40;;;;;;;11.11;100.00;100819.41;2084723;28;20451;-67
2024/03/12 01:15:18;;;;;;;12.70;7.83;;;;;;;11.03;100.00;100806.94;2085227;28;20461;-67
2024/03/12 01:16:18;;;;;;;15.87;8.57;;;;;;;11.49;100.00;100890.69;2084819;28;21026;-67
2024/03/12 01:17:22;;;;;;;14.73;8.07;;;;;;;11.48;100.00;100888.34;2084903;28;20929;-67
2024/03/12 01:18:23;;;;;;;18.20;9.20;;;;;;;11.43;100.00;100884.06;2085746;28;20176;-67
2024/03/12 01:19:26;;;;;;;13.40;8.87;;;;;;;11.45;100.00;100889.97;2090754;28;20436;-67
2024/03/12 01:20:27;;;;;;;22.40;10.30;;;;;;;11.50;100.00;100891.44;2087450;28;20475;-67
2024/03/12 01:21:27;;;;;;;16.47;8.63;;;;;;;11.50;100.00;100889.47;2088915;28;20987;-67
2024/03/12 01:22:28;;;;;;;16.53;8.53;;;;;;;11.52;100.00;100887.03;2088560;28;20199;-67
2024/03/12 01:23:28;;;;;;;18.47;9.63;;;;;;;11.53;100.00;100890.59;2085413;28;20199;-67
2024/03/12 01:24:29;;;;;;;13.87;8.17;;;;;;;11.55;100.00;100885.38;2085175;28;20232;-67
2024/03/12 01:25:30;;;;;;;16.77;8.87;;;;;;;11.54;100.00;100886.59;2089753;28;20190;-68
2024/03/12 01:26:31;;;;;;;16.57;9.17;;;;;;;11.52;100.00;100898.13;2086241;28;20474;-67
2024/03/12 01:27:33;;;;;;;13.23;8.47;;;;;;;11.50;100.00;100897.78;2089493;28;20196;-67
2024/03/12 01:28:34;;;;;;;13.43;8.23;;;;;;;11.47;100.00;100895.88;2088301;28;20578;-67
2024/03/12 01:29:35;;;;;;;16.43;9.30;;;;;;;11.49;100.00;100898.22;2085198;28;20511;-67
2024/03/12 01:30:36;;;;;;;15.60;9.13;;;;;;;11.43;100.00;100891.63;2085689;28;20434;-67
2024/03/12 01:31:37;;;;;;;13.80;8.67;;;;;;;11.36;100.00;100875.13;2089734;28;20186;-67
2024/03/12 01:32:38;;;;;;;14.77;8.60;;;;;;;11.48;100.00;100899.44;2087690;28;20476;-67
2024/03/12 01:33:39;;;;;;;16.50;8.23;;;;;;;11.45;100.00;100895.53;2084465;28;20199;-67
2024/03/12 01:34:42;;;;;;;18.60;9.57;;;;;;;11.33;100.00;100884.31;2085184;28;20475;-67
2024/03/12 01:35:46;;;;;;;16.90;9.33;;;;;;;10.89;100.00;100812.81;2085616;28;20455;-67
2024/03/12 01:36:47;;;;;;;18.40;9.07;;;;;;;11.42;100.00;100896.38;2086636;28;20497;-67
2024/03/12 01:37:51;;;;;;;18.50;9.03;;;;;;;11.41;100.00;100897.59;2085509;28;20434;-68
2024/03/12 01:38:54;;;;;;;13.83;8.40;;;;;;;11.40;100.00;100887.72;2085238;28;20810;-67
2024/03/12 01:39:55;;;;;;;15.00;8.70;;;;;;;10.85;100.00;100823.97;2087486;28;20938;-67
2024/03/12 01:40:57;;;;;;;16.47;8.67;;;;;;;11.38;100.00;100898.44;2084187;28;21196;-67
2024/03/12 01:41:58;;;;;;;17.50;8.97;;;;;;;11.34;100.00;100897.78;2085031;28;20192;-67
2024/03/12 01:43:03;;;;;;;17.00;9.33;;;;;;;11.33;100.00;100898.19;2085916;28;20450;-67
2024/03/12 01:44:06;;;;;;;17.67;9.67;;;;;;;11.27;100.00;100899.91;2089177;28;20215;-67
2024/03/12 01:45:07;;;;;;;15.07;9.30;;;;;;;11.20;100.00;100900.84;2088759;28;20516;-67
2024/03/12 01:46:10;;;;;;;16.87;10.30;;;;;;;11.07;100.00;100877.75;2086189;28;20429;-67
2024/03/12 01:47:13;;;;;;;16.33;9.23;;;;;;;10.49;100.00;100803.75;2094502;28;20265;-67
2024/03/12 01:48:15;;;;;;;15.03;9.63;;;;;;;11.26;100.00;100898.34;2085795;28;20453;-67
2024/03/12 01:49:17;;;;;;;12.43;8.43;;;;;;;11.13;100.00;100880.81;2085059;28;20452;-67
2024/03/12 01:50:18;;;;;;;14.70;9.13;;;;;;;11.29;100.00;100901.06;2085469;28;20776;-67
2024/03/12 01:51:20;;;;;;;17.07;10.00;;;;;;;11.32;100.00;100891.84;2087326;28;20477;-67
2024/03/12 01:52:22;;;;;;;16.60;9.60;;;;;;;11.35;100.00;100884.66;2085428;28;20431;-67
2024/03/12 01:53:23;;;;;;;15.63;8.97;;;;;;;11.38;100.00;100892.13;2086246;28;20425;-67
2024/03/12 01:54:24;;;;;;;14.33;8.07;;;;;;;11.35;100.00;100884.66;2086478;28;20443;-67
2024/03/12 01:55:24;;;;;;;18.03;10.17;;;;;;;10.88;100.00;100809.25;2089037;28;20237;-67
2024/03/12 01:56:25;;;;;;;17.20;9.10;;;;;;;11.37;100.00;100885.78;2087611;28;20291;-67
2024/03/12 01:57:25;;;;;;;17.77;10.23;;;;;;;11.41;100.00;100888.47;2088277;28;20196;-67
2024/03/12 01:58:26;;;;;;;16.03;9.73;;;;;;;11.21;100.00;100852.47;2087931;28;20678;-67
2024/03/12 01:59:27;;;;;;;16.00;9.07;;;;;;;11.49;100.00;100887.13;2085726;28;20196;-67
2024/03/12 02:00:29;;;;;;;15.10;9.23;;;;;;;11.50;100.00;100897.78;2086598;28;20580;-67
2024/03/12 02:01:29;;;;;;;15.20;8.67;;;;;;;11.48;100.00;100877.22;2085075;28;20231;-67
2024/03/12 02:02:30;;;;;;;16.87;9.97;;;;;;;11.19;100.00;100840.25;2084894;28;20853;-67
2024/03/12 02:03:33;;;;;;;20.03;9.23;;;;;;;11.14;100.00;100838.78;2084706;28;20200;-68
2024/03/12 02:04:34;;;;;;;15.40;8.13;;;;;;;11.55;100.00;100894.50;2084715;28;20275;-67
2024/03/12 02:05:35;;;;;;;18.23;9.00;;;;;;;11.58;100.00;100896.41;2085408;28;20454;-67
2024/03/12 02:06:35;;;;;;;17.10;9.10;;;;;;;11.60;100.00;100896.78;2086949;28;20279;-67
2024/03/12 02:07:45;;;;;;;16.70;10.13;;;;;;;11.63;100.00;100889.59;2089093;28;20669;-67
2024/03/12 02:08:48;;;;;;;17.43;8.47;;;;;;;11.61;100.00;100909.44;2085776;28;20208;-67
2024/03/12 02:09:48;;;;;;;14.20;8.43;;;;;;;11.58;100.00;100887.31;2085325;28;20905;-67
2024/03/12 02:10:49;;;;;;;17.00;9.33;;;;;;;11.30;100.00;100829.69;2085535;28;20520;-67
2024/03/12 02:11:50;;;;;;;14.37;9.63;;;;;;;11.56;100.00;100884.97;2085018;28;20733;-67
2024/03/12 02:12:51;;;;;;;19.83;9.73;;;;;;;11.39;100.00;100872.28;2085392;28;20209;-67
2024/03/12 02:13:52;;;;;;;17.10;9.70;;;;;;;11.43;100.00;100883.28;2086926;28;20458;-67
2024/03/12 02:14:52;;;;;;;15.67;9.23;;;;;;;11.36;100.00;100881.47;2085169;28;20196;-67
2024/03/12 02:15:53;;;;;;;15.70;9.43;;;;;;;11.24;100.00;100878.56;2076348;28;20596;-67
2024/03/12 02:16:53;;;;;;;16.37;9.97;;;;;;;11.13;100.00;100873.25;2084804;28;20564;-67
2024/03/12 02:17:54;;;;;;;14.03;9.27;;;;;;;11.12;100.00;100871.69;2090139;28;20188;-67
2024/03/12 02:18:54;;;;;;;16.43;8.60;;;;;;;11.10;100.00;100868.59;2090403;28;20187;-67
2024/03/12 02:19:55;;;;;;;16.33;9.23;;;;;;;10.95;100.00;100847.91;2094834;28;20575;-67
2024/03/12 02:20:55;;;;;;;18.07;10.33;;;;;;;11.11;100.00;100863.78;2085125;28;20653;-67
2024/03/12 02:21:56;;;;;;;14.80;9.63;;;;;;;11.00;100.00;100868.81;2085306;28;20727;-67
2024/03/12 02:22:58;;;;;;;16.23;9.67;;;;;;;10.88;100.00;100861.16;2084794;28;20815;-67
2024/03/12 02:23:59;;;;;;;15.37;9.07;;;;;;;10.43;100.00;100801.91;2084718;28;20610;-67
2024/03/12 02:25:00;;;;;;;15.37;8.60;;;;;;;10.92;100.00;100867.41;2086475;28;20521;-67
2024/03/12 02:26:01;;;;;;;17.07;10.20;;;;;;;9.87;100.00;100709.66;2084266;28;20198;-67
2024/03/12 02:27:01;;;;;;;17.90;10.50;;;;;;;10.89;100.00;100877.38;2084827;28;20454;-67
2024/03/12 02:28:02;;;;;;;21.27;11.10;;;;;;;10.86;100.00;100869.88;2085338;28;20724;-67
2024/03/12 02:29:07;;;;;;;17.87;9.30;;;;;;;9.83;100.00;100708.94;2087020;28;20194;-67
2024/03/12 02:30:09;;;;;;;17.87;9.57;;;;;;;10.73;100.00;100870.97;2091194;28;20542;-67
2024/03/12 02:31:12;;;;;;;19.90;9.47;;;;;;;10.01;100.00;100758.41;2086638;28;20504;-67
2024/03/12 02:32:13;;;;;;;16.53;9.47;;;;;;;10.79;100.00;100866.47;2088657;28;20975;-67
2024/03/12 02:33:14;;;;;;;16.83;9.27;;;;;;;10.83;100.00;100861.66;2088760;28;21213;-67
2024/03/12 02:34:14;;;;;;;17.67;9.70;;;;;;;10.25;100.00;100773.81;2084695;28;20181;-67
2024/03/12 02:35:15;;;;;;;14.37;8.93;;;;;;;10.86;100.00;100880.97;2087599;28;20239;-67
2024/03/12 02:36:17;;;;;;;16.60;9.47;;;;;;;10.93;100.00;100875.31;2084957;28;20279;-67
2024/03/12 02:37:21;;;;;;;17.17;9.60;;;;;;;10.87;100.00;100865.91;2087631;28;20265;-67
2024/03/12 02:38:21;;;;;;;17.63;9.87;;;;;;;10.92;100.00;100872.94;2087122;28;20507;-67
2024/03/12 02:39:22;;;;;;;18.73;8.93;;;;;;;10.81;100.00;100869.63;2086488;28;20500;-67
2024/03/12 02:40:23;;;;;;;17.27;8.87;;;;;;;10.86;100.00;100867.13;2087052;28;20212;-67
2024/03/12 02:41:24;;;;;;;19.23;9.07;;;;;;;10.38;100.00;100807.94;2085684;28;20703;-67
2024/03/12 02:42:25;;;;;;;16.53;9.10;;;;;;;10.73;100.00;100863.44;2089345;28;20843;-67
2024/03/12 02:43:25;;;;;;;18.10;9.73;;;;;;;10.80;100.00;100863.28;2090398;28;20248;-67
2024/03/12 02:44:26;;;;;;;19.50;10.03;;;;;;;10.81;100.00;100858.53;2090621;28;20257;-67
2024/03/12 02:45:27;;;;;;;15.60;10.00;;;;;;;10.81;100.00;100864.84;2093975;28;20264;-67
2024/03/12 02:46:28;;;;;;;17.73;9.63;;;;;;;9.90;100.00;100735.69;2091443;28;20432;-67
2024/03/12 02:47:29;;;;;;;17.13;9.90;;;;;;;10.68;100.00;100858.41;2086511;28;20426;-67
2024/03/12 02:48:29;;;;;;;17.07;8.80;;;;;;;10.70;100.00;100855.97;2092020;28;20238;-67
2024/03/12 02:49:30;;;;;;;14.60;9.20;;;;;;;10.80;100.00;100862.50;2086792;28;20192;-67
2024/03/12 02:50:31;;;;;;;15.03;9.57;;;;;;;10.76;100.00;100859.03;2089033;28;20187;-67
2024/03/12 02:51:31;;;;;;;17.70;10.27;;;;;;;10.75;100.00;100865.75;2089338;28;20201;-67
2024/03/12 02:52:32;;;;;;;18.07;9.70;;;;;;;10.64;100.00;100837.50;2086532;28;20418;-67
2024/03/12 02:53:32;;;;;;;17.17;9.47;;;;;;;10.75;100.00;100857.44;2086961;28;20250;-67
2024/03/12 02:54:33;;;;;;;16.17;10.20;;;;;;;10.44;100.00;100806.25;2089215;28;20240;-67
2024/03/12 02:55:36;;;;;;;19.80;10.43;;;;;;;10.73;100.00;100859.88;2086084;28;20537;-67
2024/03/12 02:56:37;;;;;;;16.03;9.10;;;;;;;10.70;100.00;100857.94;2086011;28;20662;-67
2024/03/12 02:57:37;;;;;;;19.73;10.63;;;;;;;10.69;100.00;100857.19;2086498;28;20513;-67
2024/03/12 02:58:38;;;;;;;18.27;9.80;;;;;;;10.49;100.00;100809.31;2087350;28;20966;-67
2024/03/12 02:59:39;;;;;;;18.63;9.83;;;;;;;10.81;100.00;100853.00;2094081;28;20189;-67
2024/03/12 03:00:39;;;;;;;16.40;8.47;;;;;;;10.86;100.00;100861.56;2088758;28;20287;-67
2024/03/12 03:01:40;;;;;;;18.00;9.40;;;;;;;10.28;100.00;100768.19;2086649;28;20192;-67
2024/03/12 03:02:42;;;;;;;16.50;8.53;;;;;;;10.69;100.00;100837.00;2088001;28;20188;-68
2024/03/12 03:03:42;;;;;;;18.53;9.43;;;;;;;10.78;100.00;100856.59;2089500;28;20869;-67
2024/03/12 03:04:43;;;;;;;13.13;8.47;;;;;;;10.65;100.00;100837.06;2088877;28;20558;-67
2024/03/12 03:05:43;;;;;;;16.07;8.97;;;;;;;10.25;100.00;100762.72;2086665;28;20184;-67
2024/03/12 03:06:44;;;;;;;17.07;9.37;;;;;;;10.90;100.00;100861.50;2088229;28;20634;-67
2024/03/12 03:07:47;;;;;;;16.23;8.93;;;;;;;10.95;100.00;100863.75;2086146;28;20577;-67
2024/03/12 03:08:47;;;;;;;15.73;8.90;;;;;;;10.91;100.00;100863.84;2086364;28;20206;-67
2024/03/12 03:09:48;;;;;;;14.60;9.13;;;;;;;10.92;100.00;100856.31;2086924;28;20446;-67
2024/03/12 03:10:48;;;;;;;15.27;8.90;;;;;;;10.87;100.00;100862.38;2086587;28;20204;-67
2024/03/12 03:11:49;;;;;;;14.43;9.30;;;;;;;10.89;100.00;100865.47;2086796;28;20212;-67
2024/03/12 03:12:51;;;;;;;16.73;8.70;;;;;;;10.86;100.00;100863.56;2088819;28;20194;-67
2024/03/12 03:13:52;;;;;;;17.37;9.13;;;;;;;9.91;100.00;100731.72;2086783;28;20453;-67
2024/03/12 03:14:53;;;;;;;13.90;8.40;;;;;;;9.94;100.00;100725.34;2086639;28;20440;-67
2024/03/12 03:15:53;;;;;;;17.07;8.77;;;;;;;10.89;100.00;100863.50;2088877;28;20192;-67
2024/03/12 03:16:54;;;;;;;16.07;9.40;;;;;;;10.90;100.00;100859.50;2086188;28;20216;-67
2024/03/12 03:17:55;;;;;;;17.63;8.73;;;;;;;10.94;100.00;100857.44;2086170;28;20195;-67
2024/03/12 03:18:56;;;;;;;14.77;9.23;;;;;;;10.96;100.00;100855.00;2094093;28;20180;-67
2024/03/12 03:19:57;;;;;;;13.50;9.03;;;;;;;9.76;100.00;100675.06;2095581;28;20326;-67
2024/03/12 03:20:58;;;;;;;15.07;8.77;;;;;;;11.02;100.00;100855.31;2087878;28;20434;-67
2024/03/12 03:21:59;;;;;;;16.97;9.80;;;;;;;10.05;100.00;100701.78;2086539;28;20271;-67
2024/03/12 03:22:59;;;;;;;15.47;9.13;;;;;;;10.92;100.00;100843.22;2087415;28;21009;-67
2024/03/12 03:24:00;;;;;;;13.80;8.67;;;;;;;10.97;100.00;100856.56;2085647;28;20602;-67
2024/03/12 03:25:00;;;;;;;13.43;8.57;;;;;;;11.03;100.00;100857.66;2087507;28;20242;-67
2024/03/12 03:26:01;;;;;;;13.23;8.97;;;;;;;11.09;100.00;100867.03;2087633;28;20688;-67
2024/03/12 03:27:06;;;;;;;14.10;8.80;;;;;;;11.13;100.00;100858.63;2085885;28;20223;-67
2024/03/12 03:28:07;;;;;;;15.63;9.20;;;;;;;11.17;100.00;100859.31;2086116;28;20948;-67
2024/03/12 03:29:07;;;;;;;19.20;10.23;;;;;;;11.20;100.00;100862.00;2087053;28;20512;-67
2024/03/12 03:30:10;;;;;;;14.67;9.13;;;;;;;10.84;100.00;100803.00;2086017;28;20225;-67
2024/03/12 03:31:11;;;;;;;17.70;9.97;;;;;;;11.20;100.00;100852.91;2085771;28;20723;-67
2024/03/12 03:32:11;;;;;;;15.57;9.20;;;;;;;11.23;100.00;100857.59;2088417;28;20926;-68
2024/03/12 03:33:14;;;;;;;15.97;9.13;;;;;;;11.23;100.00;100860.38;2086610;28;20275;-67
2024/03/12 03:34:17;;;;;;;17.07;9.83;;;;;;;11.28;100.00;100866.19;2085674;28;20674;-67
2024/03/12 03:35:18;;;;;;;14.70;8.60;;;;;;;11.33;100.00;100868.44;2086353;28;20814;-68
2024/03/12 03:36:18;;;;;;;16.87;9.70;;;;;;;11.17;100.00;100848.22;2085762;28;20449;-68
2024/03/12 03:37:20;;;;;;;14.73;9.10;;;;;;;11.00;100.00;100805.03;2086136;28;20265;-67
2024/03/12 03:38:21;;;;;;;15.10;9.37;;;;;;;11.37;100.00;100860.81;2094199;28;20180;-67
2024/03/12 03:39:25;;;;;;;18.20;9.83;;;;;;;11.34;100.00;100863.69;2086672;28;20445;-67
2024/03/12 03:40:26;;;;;;;14.67;9.20;;;;;;;11.33;100.00;100856.56;2092181;28;20296;-67
2024/03/12 03:41:27;;;;;;;19.80;10.87;;;;;;;11.41;100.00;100861.53;2086655;28;20445;-68
2024/03/12 03:42:27;;;;;;;19.37;11.03;;;;;;;11.36;100.00;100858.47;2086311;28;20218;-67
2024/03/12 03:43:28;;;;;;;16.27;9.83;;;;;;;11.33;100.00;100854.56;2086291;28;20430;-68
2024/03/12 03:44:29;;;;;;;18.47;10.43;;;;;;;11.32;100.00;100852.25;2086137;28;20187;-67
2024/03/12 03:45:30;;;;;;;18.20;10.47;;;;;;;11.32;100.00;100860.56;2088529;28;20188;-67
2024/03/12 03:46:30;;;;;;;17.27;10.87;;;;;;;11.36;100.00;100859.25;2085583;28;20435;-67
2024/03/12 03:47:34;;;;;;;20.80;10.57;;;;;;;11.00;100.00;100807.78;2087812;28;20254;-67
2024/03/12 03:48:35;;;;;;;15.13;9.77;;;;;;;11.38;100.00;100856.81;2086000;28;20192;-67
2024/03/12 03:49:35;;;;;;;16.13;10.03;;;;;;;11.40;100.00;100873.84;2085522;28;20449;-67
2024/03/12 03:50:36;;;;;;;16.83;10.10;;;;;;;11.41;100.00;100869.06;2084566;28;20185;-67
2024/03/12 03:51:37;;;;;;;18.43;11.20;;;;;;;11.25;100.00;100867.06;2088466;28;20271;-67
2024/03/12 03:52:38;;;;;;;17.33;10.43;;;;;;;11.35;100.00;100870.78;2086476;28;20213;-67
2024/03/12 03:53:40;;;;;;;17.40;9.77;;;;;;;11.28;100.00;100860.63;2085981;28;20290;-67
2024/03/12 03:54:40;;;;;;;15.77;9.43;;;;;;;11.11;100.00;100836.84;2086156;28;20446;-67
2024/03/12 03:55:41;;;;;;;17.87;9.90;;;;;;;11.34;100.00;100869.22;2087686;28;20451;-67
2024/03/12 03:56:42;;;;;;;18.13;9.90;;;;;;;11.34;100.00;100874.78;2084863;28;20610;-68
2024/03/12 03:57:42;;;;;;;19.27;10.00;;;;;;;11.35;100.00;100870.78;2088007;28;20245;-67
2024/03/12 03:58:46;;;;;;;16.10;10.20;;;;;;;11.12;100.00;100845.97;2085688;28;20222;-67
2024/03/12 03:59:46;;;;;;;15.30;9.47;;;;;;;11.33;100.00;100867.69;2086075;28;20275;-67
2024/03/12 04:00:47;;;;;;;17.97;9.57;;;;;;;11.37;100.00;100869.16;2085133;28;20485;-67
2024/03/12 04:01:49;;;;;;;21.03;9.37;;;;;;;11.42;100.00;100868.63;2086517;28;20202;-67
2024/03/12 04:02:50;;;;;;;18.53;10.00;;;;;;;11.25;100.00;100849.63;2086361;28;20230;-68
2024/03/12 04:03:51;;;;;;;18.90;10.13;;;;;;;11.37;100.00;100873.94;2093433;28;20478;-68
2024/03/12 04:04:52;;;;;;;17.77;9.70;;;;;;;11.42;100.00;100876.97;2088000;28;20749;-67
2024/03/12 04:05:52;;;;;;;15.07;9.90;;;;;;;11.46;100.00;100871.31;2085998;28;20867;-67
2024/03/12 04:06:53;;;;;;;16.10;9.13;;;;;;;11.48;100.00;100878.00;2087189;28;20657;-67
2024/03/12 04:07:54;;;;;;;14.90;8.87;;;;;;;10.52;100.00;100733.66;2088976;28;20753;-68
2024/03/12 04:08:54;;;;;;;20.23;10.13;;;;;;;11.41;100.00;100869.84;2086073;28;20188;-67
2024/03/12 04:09:55;;;;;;;15.53;9.03;;;;;;;11.39;100.00;100874.25;2085937;28;20187;-68
2024/03/12 04:10:55;;;;;;;14.33;9.53;;;;;;;11.34;100.00;100872.81;2088368;28;20279;-67
2024/03/12 04:11:56;;;;;;;15.90;8.80;;;;;;;11.34;100.00;100872.00;2087359;28;20257;-67
2024/03/12 04:12:56;;;;;;;12.23;8.20;;;;;;;11.34;100.00;100872.00;2089086;28;20199;-68
2024/03/12 04:13:58;;;;;;;13.90;8.63;;;;;;;11.28;100.00;100874.50;2085295;28;20276;-68
2024/03/12 04:14:58;;;;;;;14.77;8.93;;;;;;;11.29;100.00;100886.38;2085880;28;20191;-67
2024/03/12 04:15:59;;;;;;;18.33;8.97;;;;;;;11.25;100.00;100867.06;2085994;28;20515;-68
2024/03/12 04:17:04;;;;;;;16.30;8.27;;;;;;;11.22;100.00;100887.31;2088104;28;20177;-67
2024/03/12 04:18:05;;;;;;;14.40;8.07;;;;;;;11.10;100.00;100884.44;2092188;28;20187;-67
2024/03/12 04:19:06;;;;;;;13.13;8.70;;;;;;;10.67;100.00;100828.34;2088289;28;20446;-68
2024/03/12 04:20:10;;;;;;;16.57;8.03;;;;;;;10.99;100.00;100887.44;2089608;28;20473;-67
2024/03/12 04:21:14;;;;;;;11.77;8.03;;;;;;;10.98;100.00;100887.88;2087260;28;20203;-67
2024/03/12 04:22:19;;;;;;;16.17;8.67;;;;;;;10.56;100.00;100861.78;2092046;28;20427;-67
2024/03/12 04:23:20;;;;;;;15.80;8.90;;;;;;;10.94;100.00;100889.94;2087062;28;20421;-67
2024/03/12 04:24:21;;;;;;;15.30;8.03;;;;;;;10.56;100.00;100839.63;2086996;28;20536;-67
2024/03/12 04:25:21;;;;;;;14.10;9.23;;;;;;;10.86;100.00;100888.53;2086091;28;20444;-67
2024/03/12 04:26:22;;;;;;;18.23;9.27;;;;;;;10.67;100.00;100881.00;2087313;28;20184;-67
2024/03/12 04:27:23;;;;;;;17.73;9.20;;;;;;;9.75;100.00;100724.13;2087465;28;20184;-67
2024/03/12 04:28:23;;;;;;;13.63;8.83;;;;;;;9.91;100.00;100745.56;2089839;28;20254;-67
2024/03/12 04:29:24;;;;;;;13.30;8.37;;;;;;;9.93;100.00;100765.28;2085226;28;20188;-67
2024/03/12 04:30:24;;;;;;;18.10;9.00;;;;;;;10.80;100.00;100912.38;2087800;28;20654;-67
2024/03/12 04:31:25;;;;;;;17.87;8.97;;;;;;;10.15;100.00;100811.56;2085851;28;20184;-67
2024/03/12 04:32:27;;;;;;;14.67;8.20;;;;;;;10.74;100.00;100908.56;2085924;28;20251;-67
2024/03/12 04:33:28;;;;;;;17.63;9.13;;;;;;;10.70;100.00;100908.63;2085547;28;20207;-67
2024/03/12 04:34:30;;;;;;;15.63;8.30;;;;;;;10.73;100.00;100909.78;2085453;28;20541;-67
2024/03/12 04:35:31;;;;;;;16.23;8.43;;;;;;;10.76;100.00;100914.47;2086129;28;20594;-67
2024/03/12 04:36:32;;;;;;;15.10;8.50;;;;;;;10.72;100.00;100902.66;2087606;28;20426;-67
2024/03/12 04:37:33;;;;;;;15.33;9.63;;;;;;;10.72;100.00;100906.22;2086066;28;20241;-67
2024/03/12 04:38:33;;;;;;;15.67;8.97;;;;;;;10.73;100.00;100905.03;2090303;28;20441;-67